Malaga, Ohio
Current Conditions -  °F | °C
As of 11:53 PM on Monday 22 Dec 2014 (Local Time) from KHLG Reporting Station
Light Rain Light Rain  
Wind Chill: 31°   Ceiling: 6500
Heat Index: 39°   Visibility: 7mi
Dew Point: 33°   Wind: 14mph
Humidity: 79%   Direction: 100°E
Pressure: 29.91"   Gusts: NA
Location:  39.85°N, 81.15°W
Report Text: KHLG 230453Z AUTO 10012KT 7SM -RA BKN065 OVC080 04/01 A2991 RMK AO2 RAB05E15B42 SLP136 P0000 T00390006 401111044
Loading
Personal Weather Stations






























Interactive Weather Map New forecast layout! Learn more

10-Day Weather Forecast

Advertisements
Track Severe Weather on mobile